createdAt,value
2023-04-12T00:01:35.993Z,10.90
2023-04-12T00:04:05.388Z,10.90
2023-04-12T00:06:32.804Z,10.90
2023-04-12T00:09:04.897Z,10.90
2023-04-12T00:11:32.854Z,10.90
2023-04-12T00:14:01.700Z,11.00
2023-04-12T00:16:29.103Z,10.80
2023-04-12T00:18:57.802Z,10.80
2023-04-12T00:21:29.031Z,10.80
2023-04-12T00:23:57.172Z,10.90
2023-04-12T00:26:26.320Z,10.80
2023-04-12T00:28:53.904Z,10.80
2023-04-12T00:31:24.615Z,10.90
2023-04-12T00:33:52.090Z,10.90
2023-04-12T00:36:20.371Z,11.00
2023-04-12T00:38:47.569Z,11.00
2023-04-12T00:41:15.404Z,10.90
2023-04-12T00:43:44.284Z,11.00
2023-04-12T00:46:12.725Z,10.80
2023-04-12T00:48:40.763Z,10.90
2023-04-12T00:51:08.185Z,10.90
2023-04-12T00:53:36.982Z,10.80
2023-04-12T00:56:05.784Z,10.90
2023-04-12T00:58:32.961Z,10.90
2023-04-12T01:01:02.190Z,10.90
2023-04-12T01:03:31.489Z,10.90
2023-04-12T01:06:09.628Z,10.70
2023-04-12T01:08:54.170Z,10.70
2023-04-12T01:11:31.915Z,10.70
2023-04-12T01:14:14.174Z,10.60
2023-04-12T01:16:55.042Z,10.60
2023-04-12T01:19:45.588Z,10.60
2023-04-12T01:22:36.540Z,10.60
2023-04-12T01:25:24.689Z,10.70
2023-04-12T01:27:58.426Z,10.60
2023-04-12T01:30:29.290Z,10.50
2023-04-12T01:33:01.188Z,10.50
2023-04-12T01:35:32.791Z,10.50
2023-04-12T01:38:02.419Z,10.50
2023-04-12T01:40:31.470Z,10.60
2023-04-12T01:43:07.862Z,10.70
2023-04-12T01:45:35.509Z,10.70
2023-04-12T01:48:05.320Z,10.70
2023-04-12T01:50:42.406Z,10.70
2023-04-12T01:53:14.161Z,10.70
2023-04-12T01:55:48.761Z,10.70
2023-04-12T01:58:22.572Z,10.70
2023-04-12T02:00:52.060Z,10.70
2023-04-12T02:03:23.924Z,10.80
2023-04-12T02:05:52.927Z,10.70
2023-04-12T02:08:20.511Z,10.80
2023-04-12T02:10:47.501Z,10.80
2023-04-12T02:13:19.586Z,10.70
2023-04-12T02:15:46.659Z,10.60
2023-04-12T02:18:14.362Z,10.50
2023-04-12T02:20:41.916Z,10.70
2023-04-12T02:23:09.942Z,10.70
2023-04-12T02:25:44.565Z,10.70
2023-04-12T02:28:11.603Z,10.70
2023-04-12T02:30:42.021Z,10.70
2023-04-12T02:33:12.146Z,10.70
2023-04-12T02:35:39.261Z,10.60
2023-04-12T02:38:08.812Z,10.60
2023-04-12T02:40:40.031Z,10.60
2023-04-12T02:43:08.324Z,10.60
2023-04-12T02:45:43.847Z,10.50
2023-04-12T02:48:11.337Z,10.50
2023-04-12T02:50:38.915Z,10.50
2023-04-12T02:53:06.043Z,10.50
2023-04-12T02:55:33.631Z,10.50
2023-04-12T02:58:01.210Z,10.40
2023-04-12T03:00:31.706Z,10.40
2023-04-12T03:03:03.598Z,10.40
2023-04-12T03:05:30.817Z,10.40
2023-04-12T03:08:01.219Z,10.40
2023-04-12T03:10:31.824Z,10.40
2023-04-12T03:12:59.447Z,10.40
2023-04-12T03:15:28.218Z,10.40
2023-04-12T03:17:56.046Z,10.40
2023-04-12T03:20:25.297Z,10.30
2023-04-12T03:22:52.559Z,10.40
2023-04-12T03:25:20.251Z,10.40
2023-04-12T03:27:47.688Z,10.20
2023-04-12T03:30:15.869Z,10.20
2023-04-12T03:32:44.311Z,10.20
2023-04-12T03:35:14.992Z,10.20
2023-04-12T03:37:44.034Z,10.20
2023-04-12T03:40:12.684Z,10.20
2023-04-12T03:42:45.070Z,10.20
2023-04-12T03:45:12.872Z,10.20
2023-04-12T03:47:40.258Z,10.20
2023-04-12T03:50:12.081Z,10.20
2023-04-12T03:52:39.847Z,10.20
2023-04-12T03:55:09.982Z,10.10
2023-04-12T03:57:39.285Z,10.10
2023-04-12T04:00:09.485Z,10.00
2023-04-12T04:02:40.702Z,10.00
2023-04-12T04:05:13.452Z,9.90
2023-04-12T04:07:43.367Z,10.00
2023-04-12T04:10:13.901Z,9.90
2023-04-12T04:12:41.037Z,10.00
2023-04-12T04:15:10.354Z,9.90
2023-04-12T04:17:37.600Z,9.90
2023-04-12T04:20:08.285Z,9.90
2023-04-12T04:22:36.044Z,9.90
2023-04-12T04:25:03.921Z,9.90
2023-04-12T04:27:34.790Z,9.80
2023-04-12T04:30:02.998Z,9.80
2023-04-12T04:32:34.713Z,9.80
2023-04-12T04:35:01.804Z,9.90
2023-04-12T04:37:36.136Z,9.90
2023-04-12T04:40:13.953Z,9.90
2023-04-12T04:42:43.693Z,10.00
2023-04-12T04:45:15.031Z,10.00
2023-04-12T04:47:42.239Z,9.90
2023-04-12T04:50:11.105Z,9.90
2023-04-12T04:52:39.336Z,9.90
2023-04-12T04:55:11.056Z,9.90
2023-04-12T04:57:38.987Z,10.00
2023-04-12T05:00:14.439Z,9.80
2023-04-12T05:02:43.784Z,9.80
2023-04-12T05:05:13.807Z,9.80
2023-04-12T05:07:41.516Z,9.80
2023-04-12T05:10:11.158Z,9.80
2023-04-12T05:12:38.244Z,9.80
2023-04-12T05:15:12.027Z,9.80
2023-04-12T05:17:39.586Z,9.80
2023-04-12T05:22:57.722Z,9.90
2023-04-12T05:25:28.478Z,9.80
2023-04-12T05:27:55.606Z,9.80
2023-04-12T05:30:25.065Z,9.80
2023-04-12T05:32:52.197Z,9.80
2023-04-12T05:35:20.236Z,9.80
2023-04-12T05:37:47.569Z,9.80
2023-04-12T05:40:14.819Z,9.80
2023-04-12T05:42:45.442Z,9.80
2023-04-12T05:45:13.049Z,9.80
2023-04-12T05:47:41.681Z,9.80
2023-04-12T05:50:10.590Z,9.90
2023-04-12T05:52:38.367Z,9.80
2023-04-12T05:55:06.537Z,9.80
2023-04-12T05:57:34.152Z,9.70
2023-04-12T06:00:01.688Z,9.70
2023-04-12T06:02:29.386Z,9.70
2023-04-12T06:05:02.248Z,9.80
2023-04-12T06:07:30.578Z,9.80
2023-04-12T06:10:11.449Z,9.80
2023-04-12T06:12:38.496Z,9.80
2023-04-12T06:15:08.145Z,9.80
2023-04-12T06:17:35.459Z,9.80
2023-04-12T06:20:10.181Z,9.80
2023-04-12T06:22:37.506Z,9.80
2023-04-12T06:27:51.700Z,9.80
2023-04-12T06:30:21.368Z,9.70
2023-04-12T06:32:48.969Z,9.70
2023-04-12T06:35:17.836Z,9.80
2023-04-12T06:37:45.449Z,9.80
2023-04-12T06:40:14.095Z,9.70
2023-04-12T06:42:41.103Z,9.80
2023-04-12T06:45:09.683Z,9.70
2023-04-12T06:47:36.828Z,9.70
2023-04-12T06:50:07.512Z,9.80
2023-04-12T06:52:36.385Z,9.70
2023-04-12T06:55:04.759Z,9.70
2023-04-12T06:57:33.879Z,9.70
2023-04-12T07:00:01.389Z,9.60
2023-04-12T07:02:29.023Z,9.70
2023-04-12T07:04:59.325Z,9.70
2023-04-12T07:07:29.661Z,9.70
2023-04-12T07:10:00.581Z,9.70
2023-04-12T07:12:30.995Z,9.70
2023-04-12T07:14:58.858Z,9.70
2023-04-12T07:17:32.213Z,9.70
2023-04-12T07:20:09.282Z,9.60
2023-04-12T07:22:36.888Z,9.70
2023-04-12T07:25:10.755Z,9.70
2023-04-12T07:27:40.631Z,9.70
2023-04-12T07:30:17.533Z,9.70
2023-04-12T07:32:48.090Z,9.70
2023-04-12T07:35:16.086Z,9.80
2023-04-12T07:37:43.917Z,9.70
2023-04-12T07:40:13.071Z,9.70
2023-04-12T07:42:46.652Z,9.70
2023-04-12T07:45:17.056Z,9.70
2023-04-12T07:47:45.122Z,9.70
2023-04-12T07:50:15.420Z,9.70
2023-04-12T07:52:42.661Z,9.70
2023-04-12T07:55:14.532Z,9.70
2023-04-12T07:57:42.263Z,9.80
2023-04-12T08:00:11.339Z,9.90
2023-04-12T08:02:38.646Z,9.90
2023-04-12T08:05:08.581Z,9.90
2023-04-12T08:07:36.697Z,9.90
2023-04-12T08:10:04.245Z,9.90
2023-04-12T08:12:33.481Z,10.00
2023-04-12T08:15:01.447Z,10.00
2023-04-12T08:20:15.797Z,10.00
2023-04-12T08:22:43.318Z,10.00
2023-04-12T08:25:11.295Z,10.00
2023-04-12T08:27:42.505Z,10.00
2023-04-12T08:30:12.326Z,10.00
2023-04-12T08:32:40.122Z,10.10
2023-04-12T08:35:09.848Z,10.10
2023-04-12T08:37:37.780Z,10.10
2023-04-12T08:40:08.920Z,10.10
2023-04-12T08:42:38.828Z,10.20
2023-04-12T08:45:07.415Z,10.20
2023-04-12T08:47:39.046Z,10.30
2023-04-12T08:50:15.861Z,10.30
2023-04-12T08:52:43.654Z,10.30
2023-04-12T08:55:13.453Z,10.40
2023-04-12T08:57:42.623Z,10.40
2023-04-12T09:00:15.345Z,10.40
2023-04-12T09:02:47.316Z,10.40
2023-04-12T09:05:15.417Z,10.40
2023-04-12T09:07:42.846Z,10.50
2023-04-12T09:10:10.884Z,10.40
2023-04-12T09:12:50.855Z,10.50
2023-04-12T09:15:19.998Z,10.50
2023-04-12T09:17:49.126Z,10.50
2023-04-12T09:20:26.310Z,10.50
2023-04-12T09:22:56.263Z,10.50
2023-04-12T09:25:41.564Z,10.60
2023-04-12T09:28:28.382Z,10.60
2023-04-12T09:30:57.518Z,10.60
2023-04-12T09:33:34.928Z,10.60
2023-04-12T09:36:03.661Z,10.60
2023-04-12T09:38:31.646Z,10.60
2023-04-12T09:41:21.596Z,10.70
2023-04-12T09:43:52.444Z,10.60
2023-04-12T09:46:20.357Z,10.70
2023-04-12T09:48:55.157Z,10.70
2023-04-12T09:51:29.309Z,10.70
2023-04-12T09:54:01.220Z,10.70
2023-04-12T09:56:31.415Z,10.80
2023-04-12T09:59:04.088Z,10.80
2023-04-12T10:01:40.485Z,10.80
2023-04-12T10:04:17.782Z,10.90
2023-04-12T10:06:49.123Z,10.90
2023-04-12T10:09:22.741Z,10.90
2023-04-12T10:11:53.834Z,10.90
2023-04-12T10:14:29.594Z,10.90
2023-04-12T10:16:59.431Z,10.90
2023-04-12T10:19:30.147Z,10.90
2023-04-12T10:21:59.068Z,11.00
2023-04-12T10:24:29.760Z,11.00
2023-04-12T10:27:00.956Z,10.90
2023-04-12T10:29:32.582Z,11.00
2023-04-12T10:32:20.533Z,10.90
2023-04-12T10:34:56.523Z,11.00
2023-04-12T10:38:06.248Z,11.00
2023-04-12T10:40:37.835Z,11.10
2023-04-12T10:43:28.157Z,11.10
2023-04-12T10:45:59.830Z,11.10
2023-04-12T10:48:32.882Z,11.10
2023-04-12T10:51:15.583Z,11.10
2023-04-12T10:53:42.720Z,11.20
2023-04-12T10:56:39.724Z,11.20
2023-04-12T10:59:08.322Z,11.20
2023-04-12T11:01:39.292Z,11.20
2023-04-12T11:04:19.048Z,11.20
2023-04-12T11:07:00.387Z,11.20
2023-04-12T11:09:30.794Z,11.30
2023-04-12T11:12:13.690Z,11.40
2023-04-12T11:14:47.213Z,11.40
2023-04-12T11:17:24.930Z,11.40
2023-04-12T11:19:59.910Z,11.40
2023-04-12T11:22:33.301Z,11.40
2023-04-12T11:25:10.923Z,11.50
2023-04-12T11:27:38.621Z,11.40
2023-04-12T11:30:07.986Z,11.50
2023-04-12T11:32:37.348Z,11.50
2023-04-12T11:35:06.027Z,11.60
2023-04-12T11:37:39.510Z,11.60
2023-04-12T11:40:09.972Z,11.60
2023-04-12T11:42:43.534Z,11.60
2023-04-12T11:45:29.585Z,11.60
2023-04-12T11:48:02.745Z,11.60
2023-04-12T11:50:32.159Z,11.60
2023-04-12T11:53:12.857Z,11.70
2023-04-12T11:55:50.286Z,11.70
2023-04-12T11:58:24.596Z,11.70
2023-04-12T12:00:59.861Z,11.70
2023-04-12T12:03:36.417Z,11.80
2023-04-12T12:06:04.391Z,11.80
2023-04-12T12:08:32.168Z,11.80
2023-04-12T12:11:08.532Z,11.90
2023-04-12T12:13:50.894Z,12.00
2023-04-12T12:16:27.311Z,12.00
2023-04-12T12:18:58.725Z,12.10
2023-04-12T12:21:27.909Z,12.20
2023-04-12T12:23:57.487Z,12.30
2023-04-12T12:26:29.341Z,12.40
2023-04-12T12:29:00.046Z,12.40
2023-04-12T12:31:31.439Z,12.50
2023-04-12T12:34:04.271Z,12.50
2023-04-12T12:36:36.710Z,12.40
2023-04-12T12:39:07.458Z,12.50
2023-04-12T12:41:35.829Z,12.50
2023-04-12T12:44:03.591Z,12.50
2023-04-12T12:46:44.484Z,12.60
2023-04-12T12:49:19.845Z,12.70
2023-04-12T12:51:51.882Z,12.80
2023-04-12T12:54:36.021Z,12.90
2023-04-12T12:57:07.348Z,12.90
2023-04-12T12:59:34.804Z,12.90
2023-04-12T13:02:09.096Z,13.00
2023-04-12T13:04:38.077Z,13.10
2023-04-12T13:07:06.012Z,13.10
2023-04-12T13:09:33.279Z,13.20
2023-04-12T13:12:16.465Z,13.30
2023-04-12T13:14:43.992Z,13.30
2023-04-12T13:17:11.244Z,13.30
2023-04-12T13:19:40.788Z,13.20
2023-04-12T13:22:08.763Z,13.20
2023-04-12T13:24:36.961Z,13.10
2023-04-12T13:27:04.955Z,13.10
2023-04-12T13:29:37.448Z,13.10
2023-04-12T13:32:05.519Z,13.10
2023-04-12T13:37:22.411Z,13.10
2023-04-12T13:39:51.609Z,13.10
2023-04-12T13:42:19.561Z,13.10
2023-04-12T13:44:48.563Z,13.10
2023-04-12T13:47:16.240Z,13.20
2023-04-12T13:49:43.496Z,13.20
2023-04-12T13:52:10.557Z,13.20
2023-04-12T13:54:43.787Z,13.20
2023-04-12T13:57:11.498Z,13.30
2023-04-12T13:59:38.617Z,13.30
2023-04-12T14:02:09.432Z,13.30
2023-04-12T14:04:36.791Z,13.30
2023-04-12T14:07:04.583Z,13.30
2023-04-12T14:09:33.357Z,13.30
2023-04-12T14:12:03.286Z,13.30
2023-04-12T14:14:33.734Z,13.30
2023-04-12T14:17:02.180Z,13.30
2023-04-12T14:19:30.066Z,13.30
2023-04-12T14:21:57.940Z,13.20
2023-04-12T14:24:25.024Z,13.20
2023-04-12T14:26:52.799Z,13.20
2023-04-12T14:29:21.572Z,13.20
2023-04-12T14:31:58.300Z,13.10
2023-04-12T14:34:25.716Z,13.20
2023-04-12T14:36:53.342Z,13.20
2023-04-12T14:39:31.446Z,13.20
2023-04-12T14:41:59.271Z,13.20
2023-04-12T14:44:30.953Z,13.20
2023-04-12T14:46:59.862Z,13.20
2023-04-12T14:49:28.410Z,13.30
2023-04-12T14:51:57.658Z,13.40
2023-04-12T14:54:25.851Z,13.50
2023-04-12T14:56:55.891Z,13.50
2023-04-12T14:59:32.797Z,13.50
2023-04-12T15:02:00.076Z,13.50
2023-04-12T15:04:30.742Z,13.60
2023-04-12T15:07:00.149Z,13.60
2023-04-12T15:09:28.557Z,13.60
2023-04-12T15:12:01.395Z,13.60
2023-04-12T15:14:30.836Z,13.50
2023-04-12T15:17:00.455Z,13.50
2023-04-12T15:19:28.257Z,13.50
2023-04-12T15:22:00.227Z,13.50
2023-04-12T15:24:28.019Z,13.50
2023-04-12T15:26:55.649Z,13.50
2023-04-12T15:29:24.804Z,13.40
2023-04-12T15:31:52.545Z,13.40
2023-04-12T15:34:30.206Z,13.40
2023-04-12T15:36:57.603Z,13.40
2023-04-12T15:39:30.868Z,13.50
2023-04-12T15:41:57.856Z,13.50
2023-04-12T15:44:32.248Z,13.50
2023-04-12T15:47:10.305Z,13.50
2023-04-12T15:49:40.138Z,13.60
2023-04-12T15:52:09.435Z,13.60
2023-04-12T15:54:45.059Z,13.60
2023-04-12T15:57:12.457Z,13.60
2023-04-12T15:59:41.197Z,13.60
2023-04-12T16:02:10.459Z,13.50
2023-04-12T16:04:40.365Z,13.50
2023-04-12T16:07:11.617Z,13.50
2023-04-12T16:09:46.111Z,13.50
2023-04-12T16:12:14.009Z,13.50
2023-04-12T16:14:42.410Z,13.50
2023-04-12T16:17:10.481Z,13.50
2023-04-12T16:19:39.495Z,13.40
2023-04-12T16:22:07.204Z,13.40
2023-04-12T16:24:34.662Z,13.50
2023-04-12T16:27:02.796Z,13.50
2023-04-12T16:29:32.092Z,13.50
2023-04-12T16:32:12.152Z,13.50
2023-04-12T16:34:43.304Z,13.50
2023-04-12T16:37:11.336Z,13.50
2023-04-12T16:39:39.089Z,13.70
2023-04-12T16:42:08.395Z,13.80
2023-04-12T16:44:36.608Z,13.80
2023-04-12T16:47:04.855Z,13.70
2023-04-12T16:49:34.874Z,13.70
2023-04-12T16:52:04.882Z,13.70
2023-04-12T16:54:35.905Z,13.60
2023-04-12T16:57:06.300Z,13.60
2023-04-12T16:59:36.790Z,13.60
2023-04-12T17:02:15.385Z,13.60
2023-04-12T17:04:43.313Z,13.60
2023-04-12T17:07:11.913Z,13.50
2023-04-12T17:09:39.632Z,13.50
2023-04-12T17:12:07.956Z,13.50
2023-04-12T17:14:37.591Z,13.50
2023-04-12T17:17:06.328Z,13.50
2023-04-12T17:19:34.810Z,13.40
2023-04-12T17:22:01.950Z,13.40
2023-04-12T17:24:32.436Z,13.30
2023-04-12T17:27:01.397Z,13.30
2023-04-12T17:29:29.623Z,13.30
2023-04-12T17:31:59.901Z,13.20
2023-04-12T17:34:29.131Z,13.20
2023-04-12T17:36:56.166Z,13.20
2023-04-12T17:39:23.782Z,13.10
2023-04-12T17:41:52.781Z,13.10
2023-04-12T17:44:20.000Z,13.10
2023-04-12T17:46:47.898Z,13.00
2023-04-12T17:49:15.584Z,12.90
2023-04-12T17:51:43.495Z,12.80
2023-04-12T17:54:10.931Z,12.80
2023-04-12T17:56:38.602Z,12.70
2023-04-12T17:59:07.772Z,12.70
2023-04-12T18:01:36.992Z,12.70
2023-04-12T18:04:05.701Z,12.60
2023-04-12T18:06:33.738Z,12.60
2023-04-12T18:09:03.227Z,12.60
2023-04-12T18:11:34.908Z,12.60
2023-04-12T18:14:02.139Z,12.60
2023-04-12T18:16:32.586Z,12.60
2023-04-12T18:19:03.417Z,12.60
2023-04-12T18:21:31.795Z,12.60
2023-04-12T18:24:00.484Z,12.40
2023-04-12T18:26:31.649Z,12.10
2023-04-12T18:29:00.411Z,12.00
2023-04-12T18:31:28.349Z,11.70
2023-04-12T18:33:57.667Z,11.50
2023-04-12T18:36:27.762Z,11.40
2023-04-12T18:38:57.712Z,11.30
2023-04-12T18:41:28.892Z,11.10
2023-04-12T18:43:57.086Z,11.00
2023-04-12T18:46:27.405Z,11.00
2023-04-12T18:48:55.975Z,10.80
2023-04-12T18:51:24.017Z,10.60
2023-04-12T18:53:51.497Z,10.40
2023-04-12T18:56:25.632Z,10.30
2023-04-12T18:58:57.851Z,10.10
2023-04-12T19:01:28.127Z,10.00
2023-04-12T19:04:05.520Z,10.00
2023-04-12T19:06:33.602Z,9.80
2023-04-12T19:09:01.429Z,9.70
2023-04-12T19:11:28.563Z,9.70
2023-04-12T19:14:00.290Z,9.60
2023-04-12T19:16:28.369Z,9.60
2023-04-12T19:18:57.837Z,9.50
2023-04-12T19:21:36.002Z,9.60
2023-04-12T19:24:04.207Z,9.60
2023-04-12T19:26:32.686Z,9.60
2023-04-12T19:29:00.014Z,9.60
2023-04-12T19:31:39.961Z,9.50
2023-04-12T19:34:07.134Z,9.50
2023-04-12T19:36:36.236Z,9.30
2023-04-12T19:39:04.821Z,9.40
2023-04-12T19:41:31.878Z,9.40
2023-04-12T19:43:59.856Z,9.30
2023-04-12T19:46:29.707Z,9.30
2023-04-12T19:48:58.916Z,9.20
2023-04-12T19:51:26.289Z,9.20
2023-04-12T19:53:55.343Z,9.00
2023-04-12T19:56:24.216Z,8.90
2023-04-12T19:58:54.957Z,8.90
2023-04-12T20:01:22.098Z,8.90
2023-04-12T20:03:49.341Z,8.80
2023-04-12T20:06:19.918Z,8.90
2023-04-12T20:08:47.748Z,8.80
2023-04-12T20:11:16.688Z,8.70
2023-04-12T20:13:44.373Z,8.60
2023-04-12T20:16:11.487Z,8.60
2023-04-12T20:18:39.325Z,8.50
2023-04-12T20:21:09.864Z,8.40
2023-04-12T20:23:38.111Z,8.50
2023-04-12T20:26:05.663Z,8.40
2023-04-12T20:28:35.151Z,8.50
2023-04-12T20:31:03.025Z,8.40
2023-04-12T20:33:30.986Z,8.40
2023-04-12T20:36:03.878Z,8.40
2023-04-12T20:41:22.340Z,8.30
2023-04-12T20:43:54.583Z,8.40
2023-04-12T20:46:26.606Z,8.30
2023-04-12T20:48:56.950Z,8.30
2023-04-12T20:51:24.723Z,8.20
2023-04-12T20:53:52.492Z,8.10
2023-04-12T20:56:20.219Z,8.10
2023-04-12T20:58:50.952Z,8.00
2023-04-12T21:01:19.654Z,7.90
2023-04-12T21:03:50.404Z,7.80
2023-04-12T21:06:17.819Z,7.70
2023-04-12T21:08:47.894Z,7.70
2023-04-12T21:11:18.147Z,7.70
2023-04-12T21:13:48.581Z,7.60
2023-04-12T21:16:16.373Z,7.70
2023-04-12T21:18:47.593Z,7.80
2023-04-12T21:21:15.565Z,7.90
2023-04-12T21:23:51.771Z,7.90
2023-04-12T21:26:19.620Z,7.90
2023-04-12T21:28:47.074Z,7.90
2023-04-12T21:31:14.594Z,7.90
2023-04-12T21:33:47.375Z,7.80
2023-04-12T21:36:18.439Z,7.80
2023-04-12T21:38:49.321Z,7.70
2023-04-12T21:41:16.927Z,7.70
2023-04-12T21:46:32.574Z,7.60
2023-04-12T21:49:02.097Z,7.30
2023-04-12T21:51:29.306Z,7.30
2023-04-12T21:53:56.626Z,7.20
2023-04-12T21:56:23.633Z,7.20
2023-04-12T21:58:51.767Z,7.10
2023-04-12T22:01:19.484Z,7.20
2023-04-12T22:03:46.919Z,7.20
2023-04-12T22:06:20.188Z,7.20
2023-04-12T22:08:48.679Z,6.90
2023-04-12T22:11:21.592Z,6.80
2023-04-12T22:13:51.711Z,6.80
2023-04-12T22:16:19.042Z,6.90
2023-04-12T22:18:50.222Z,6.70
2023-04-12T22:21:19.183Z,6.80
2023-04-12T22:23:46.311Z,6.70
2023-04-12T22:26:14.100Z,6.70
2023-04-12T22:28:43.013Z,6.70
2023-04-12T22:34:02.672Z,6.70
2023-04-12T22:36:37.960Z,6.70
2023-04-12T22:39:05.362Z,6.80
2023-04-12T22:41:35.506Z,6.70
2023-04-12T22:44:03.000Z,6.60
2023-04-12T22:46:34.008Z,6.60
2023-04-12T22:49:01.676Z,6.60
2023-04-12T22:51:33.997Z,6.60
2023-04-12T22:54:03.094Z,6.50
2023-04-12T22:56:33.368Z,6.50
2023-04-12T22:59:00.484Z,6.50
2023-04-12T23:01:30.845Z,6.40
2023-04-12T23:04:01.144Z,6.40
2023-04-12T23:06:30.320Z,6.30
2023-04-12T23:09:02.097Z,6.20
2023-04-12T23:11:30.030Z,6.30
2023-04-12T23:14:00.267Z,6.10
2023-04-12T23:16:28.043Z,6.10
2023-04-12T23:18:55.114Z,6.20
2023-04-12T23:21:22.643Z,6.20
2023-04-12T23:23:49.653Z,6.30
2023-04-12T23:26:18.683Z,6.30
2023-04-12T23:28:46.149Z,6.30
2023-04-12T23:31:13.441Z,6.30
2023-04-12T23:33:43.590Z,6.30
2023-04-12T23:36:11.643Z,6.10
2023-04-12T23:38:41.166Z,6.10
2023-04-12T23:41:12.393Z,6.10
2023-04-12T23:43:43.899Z,6.00
2023-04-12T23:46:10.924Z,6.10
2023-04-12T23:48:38.641Z,6.10
2023-04-12T23:51:07.303Z,6.00
2023-04-12T23:53:34.394Z,5.80
2023-04-12T23:56:06.381Z,5.80
2023-04-12T23:58:34.102Z,5.90
